createdAt,value
2022-10-24T00:01:14.800Z,53.77
2022-10-24T00:03:42.191Z,57.97
2022-10-24T00:06:10.866Z,59.77
2022-10-24T00:08:39.161Z,59.47
2022-10-24T00:11:15.718Z,53.10
2022-10-24T00:13:43.256Z,60.13
2022-10-24T00:16:11.235Z,52.80
2022-10-24T00:18:38.852Z,52.37
2022-10-24T00:21:07.411Z,57.07
2022-10-24T00:23:34.958Z,49.43
2022-10-24T00:26:04.012Z,56.77
2022-10-24T00:28:32.651Z,49.63
2022-10-24T00:31:00.030Z,44.40
2022-10-24T00:33:27.267Z,54.37
2022-10-24T00:35:54.186Z,47.87
2022-10-24T00:38:21.434Z,52.43
2022-10-24T00:40:48.285Z,54.07
2022-10-24T00:43:17.574Z,48.23
2022-10-24T00:45:55.144Z,52.97
2022-10-24T00:48:25.322Z,55.93
2022-10-24T00:51:04.819Z,54.80
2022-10-24T00:53:34.897Z,49.60
2022-10-24T00:56:04.925Z,55.27
2022-10-24T00:58:35.147Z,51.73
2022-10-24T01:01:03.292Z,49.20
2022-10-24T01:03:30.309Z,52.83
2022-10-24T01:06:10.100Z,49.67
2022-10-24T01:08:50.706Z,42.90
2022-10-24T01:11:36.123Z,45.67
2022-10-24T01:14:17.621Z,42.53
2022-10-24T01:16:56.794Z,68.67
2022-10-24T01:20:01.450Z,45.27
2022-10-24T01:22:55.790Z,181.27
2022-10-24T01:25:38.900Z,45.77
2022-10-24T01:28:32.718Z,37.00
2022-10-24T01:31:13.843Z,35.83
2022-10-24T01:33:49.570Z,45.60
2022-10-24T01:36:50.057Z,44.70
2022-10-24T01:39:21.155Z,46.07
2022-10-24T01:41:48.777Z,55.90
2022-10-24T01:44:22.404Z,49.10
2022-10-24T01:46:57.037Z,48.87
2022-10-24T01:49:29.870Z,53.37
2022-10-24T01:52:01.578Z,53.73
2022-10-24T01:54:30.981Z,49.43
2022-10-24T01:56:58.289Z,44.10
2022-10-24T01:59:30.649Z,46.47
2022-10-24T02:02:13.375Z,41.13
2022-10-24T02:04:46.465Z,38.80
2022-10-24T02:07:14.144Z,41.50
2022-10-24T02:09:43.563Z,44.20
2022-10-24T02:12:14.450Z,45.03
2022-10-24T02:14:46.853Z,44.87
2022-10-24T02:17:14.387Z,54.50
2022-10-24T02:19:42.086Z,48.43
2022-10-24T02:22:33.324Z,47.83
2022-10-24T02:25:08.926Z,51.87
2022-10-24T02:28:11.733Z,61.83
2022-10-24T02:30:44.462Z,67.37
2022-10-24T02:33:12.622Z,55.63
2022-10-24T02:35:41.441Z,52.77
2022-10-24T02:38:31.495Z,50.37
2022-10-24T02:41:01.003Z,61.13
2022-10-24T02:43:30.423Z,57.77
2022-10-24T02:45:58.631Z,68.47
2022-10-24T02:48:33.485Z,95.80
2022-10-24T02:51:00.847Z,60.53
2022-10-24T02:53:28.918Z,74.73
2022-10-24T02:55:56.187Z,92.37
2022-10-24T02:58:23.211Z,78.73
2022-10-24T03:00:50.146Z,118.80
2022-10-24T03:03:17.190Z,78.63
2022-10-24T03:05:44.018Z,78.60
2022-10-24T03:08:12.429Z,100.80
2022-10-24T03:10:39.228Z,86.63
2022-10-24T03:13:06.485Z,93.87
2022-10-24T03:15:33.384Z,75.83
2022-10-24T03:18:00.391Z,77.87
2022-10-24T03:20:27.227Z,89.43
2022-10-24T03:22:54.349Z,79.40
2022-10-24T03:25:21.224Z,76.30
2022-10-24T03:27:48.401Z,77.67
2022-10-24T03:30:15.225Z,82.43
2022-10-24T03:32:42.555Z,72.90
2022-10-24T03:35:11.829Z,68.90
2022-10-24T03:37:41.511Z,67.47
2022-10-24T03:40:09.942Z,63.63
2022-10-24T03:42:37.069Z,59.43
2022-10-24T03:45:04.218Z,69.23
2022-10-24T03:47:31.568Z,62.60
2022-10-24T03:49:58.360Z,63.13
2022-10-24T03:52:26.087Z,67.63
2022-10-24T03:54:52.925Z,65.57
2022-10-24T03:57:22.984Z,71.87
2022-10-24T03:59:49.991Z,63.23
2022-10-24T04:02:17.008Z,62.03
2022-10-24T04:04:43.767Z,64.97
2022-10-24T04:07:10.914Z,66.13
2022-10-24T04:09:37.714Z,74.97
2022-10-24T04:12:05.182Z,78.60
2022-10-24T04:14:32.022Z,72.47
2022-10-24T04:16:59.236Z,77.73
2022-10-24T04:19:26.164Z,67.10
2022-10-24T04:21:53.650Z,65.63
2022-10-24T04:24:20.493Z,58.17
2022-10-24T04:26:47.541Z,66.03
2022-10-24T04:29:14.448Z,66.00
2022-10-24T04:31:41.487Z,82.30
2022-10-24T04:34:08.384Z,94.27
2022-10-24T04:36:35.608Z,91.30
2022-10-24T04:39:06.985Z,99.93
2022-10-24T04:41:34.120Z,87.43
2022-10-24T04:44:00.874Z,82.93
2022-10-24T04:46:28.046Z,79.73
2022-10-24T04:48:54.965Z,82.77
2022-10-24T04:51:22.689Z,82.33
2022-10-24T04:53:50.636Z,90.70
2022-10-24T04:56:19.232Z,76.77
2022-10-24T04:58:46.177Z,77.67
2022-10-24T05:01:13.247Z,74.60
2022-10-24T05:03:40.272Z,70.53
2022-10-24T05:06:07.323Z,81.47
2022-10-24T05:08:34.268Z,81.67
2022-10-24T05:11:02.028Z,77.83
2022-10-24T05:13:31.749Z,80.33
2022-10-24T05:16:02.110Z,77.60
2022-10-24T05:18:29.000Z,76.40
2022-10-24T05:21:00.627Z,85.37
2022-10-24T05:23:27.588Z,80.70
2022-10-24T05:25:54.569Z,81.70
2022-10-24T05:28:21.331Z,84.27
2022-10-24T05:30:48.732Z,83.93
2022-10-24T05:33:15.666Z,85.10
2022-10-24T05:35:42.668Z,81.47
2022-10-24T05:38:09.820Z,74.90
2022-10-24T05:40:36.823Z,71.70
2022-10-24T05:43:03.685Z,72.63
2022-10-24T05:45:30.810Z,73.60
2022-10-24T05:47:57.737Z,72.40
2022-10-24T05:50:26.748Z,66.87
2022-10-24T05:52:53.804Z,65.27
2022-10-24T05:55:20.700Z,66.53
2022-10-24T05:57:47.926Z,68.67
2022-10-24T06:00:16.880Z,73.73
2022-10-24T06:02:44.432Z,68.93
2022-10-24T06:05:12.260Z,64.67
2022-10-24T06:07:41.966Z,70.73
2022-10-24T06:10:10.330Z,65.77
2022-10-24T06:12:37.247Z,65.53
2022-10-24T06:15:07.186Z,72.07
2022-10-24T06:17:34.149Z,73.20
2022-10-24T06:20:01.126Z,68.93
2022-10-24T06:22:29.718Z,76.27
2022-10-24T06:24:57.119Z,78.53
2022-10-24T06:27:24.406Z,82.40
2022-10-24T06:29:51.408Z,68.47
2022-10-24T06:32:18.984Z,80.13
2022-10-24T06:34:46.051Z,79.63
2022-10-24T06:37:12.909Z,70.70
2022-10-24T06:39:40.305Z,75.83
2022-10-24T06:42:07.056Z,71.40
2022-10-24T06:44:34.170Z,79.07
2022-10-24T06:47:00.866Z,70.73
2022-10-24T06:49:28.120Z,66.43
2022-10-24T06:51:54.911Z,80.37
2022-10-24T06:54:23.257Z,65.27
2022-10-24T06:56:52.177Z,73.63
2022-10-24T06:59:19.341Z,74.37
2022-10-24T07:01:46.459Z,79.97
2022-10-24T07:04:13.610Z,69.83
2022-10-24T07:06:40.726Z,69.30
2022-10-24T07:09:11.478Z,71.63
2022-10-24T07:11:41.266Z,73.93
2022-10-24T07:14:09.532Z,71.63
2022-10-24T07:16:36.676Z,66.97
2022-10-24T07:19:04.754Z,68.63
2022-10-24T07:21:33.341Z,61.97
2022-10-24T07:24:01.325Z,63.80
2022-10-24T07:26:29.359Z,63.67
2022-10-24T07:31:34.705Z,59.63
2022-10-24T07:34:06.140Z,61.73
2022-10-24T07:36:32.936Z,54.60
2022-10-24T07:39:01.003Z,59.87
2022-10-24T07:41:31.648Z,53.30
2022-10-24T07:44:00.106Z,55.33
2022-10-24T07:46:27.036Z,53.50
2022-10-24T07:48:54.657Z,48.37
2022-10-24T07:51:22.190Z,55.40
2022-10-24T07:53:49.922Z,49.87
2022-10-24T07:56:17.824Z,47.28
2022-10-24T07:58:46.653Z,51.50
2022-10-24T08:01:17.415Z,43.63
2022-10-24T08:03:44.952Z,41.17
2022-10-24T08:06:15.520Z,49.43
2022-10-24T08:08:42.706Z,41.23
2022-10-24T08:11:11.839Z,36.87
2022-10-24T08:13:39.195Z,36.33
2022-10-24T08:16:07.797Z,35.53
2022-10-24T08:18:39.432Z,32.13
2022-10-24T08:21:10.591Z,34.33
2022-10-24T08:23:40.714Z,27.80
2022-10-24T08:26:08.716Z,27.65
2022-10-24T08:28:35.920Z,27.17
2022-10-24T08:31:06.194Z,31.73
2022-10-24T08:33:33.595Z,27.80
2022-10-24T08:36:04.682Z,27.58
2022-10-24T08:38:32.335Z,29.88
2022-10-24T08:41:00.087Z,25.67
2022-10-24T08:43:27.580Z,28.57
2022-10-24T08:46:15.067Z,24.83
2022-10-24T08:48:51.328Z,21.40
2022-10-24T08:51:30.837Z,23.92
2022-10-24T08:53:59.846Z,19.55
2022-10-24T08:56:32.632Z,21.27
2022-10-24T08:59:03.369Z,15.00
2022-10-24T09:01:31.128Z,19.50
2022-10-24T09:04:03.455Z,21.33
2022-10-24T09:06:32.443Z,16.90
2022-10-24T09:09:16.768Z,18.90
2022-10-24T09:11:58.692Z,21.33
2022-10-24T09:14:36.674Z,15.45
2022-10-24T09:17:31.255Z,17.33
2022-10-24T09:20:06.067Z,23.50
2022-10-24T09:22:37.569Z,22.92
2022-10-24T09:25:16.390Z,20.73
2022-10-24T09:27:44.130Z,21.58
2022-10-24T09:30:20.460Z,20.48
2022-10-24T09:32:48.179Z,18.67
2022-10-24T09:35:21.562Z,34.97
2022-10-24T09:37:50.303Z,20.15
2022-10-24T09:40:20.705Z,20.98
2022-10-24T09:42:52.625Z,19.45
2022-10-24T09:45:34.032Z,20.45
2022-10-24T09:48:14.160Z,23.35
2022-10-24T09:50:42.567Z,22.42
2022-10-24T09:53:23.411Z,17.95
2022-10-24T09:55:53.567Z,22.50
2022-10-24T09:58:29.677Z,17.98
2022-10-24T10:00:59.794Z,16.58
2022-10-24T10:03:27.400Z,18.08
2022-10-24T10:06:02.220Z,16.13
2022-10-24T10:08:31.902Z,22.42
2022-10-24T10:11:03.940Z,22.63
2022-10-24T10:13:37.716Z,26.77
2022-10-24T10:16:07.831Z,21.05
2022-10-24T10:18:34.648Z,21.80
2022-10-24T10:21:08.780Z,20.60
2022-10-24T10:23:47.651Z,19.92
2022-10-24T10:26:20.873Z,22.73
2022-10-24T10:28:52.642Z,20.15
2022-10-24T10:31:23.457Z,21.08
2022-10-24T10:34:21.594Z,18.00
2022-10-24T10:37:26.402Z,20.25
2022-10-24T10:40:05.079Z,17.52
2022-10-24T10:42:49.100Z,15.95
2022-10-24T10:45:36.303Z,19.48
2022-10-24T10:48:32.850Z,19.58
2022-10-24T10:51:08.924Z,21.27
2022-10-24T10:53:51.004Z,22.38
2022-10-24T10:56:39.487Z,21.65
2022-10-24T10:59:28.537Z,19.92
2022-10-24T11:02:14.935Z,18.88
2022-10-24T11:04:42.392Z,19.05
2022-10-24T11:07:38.434Z,17.83
2022-10-24T11:10:09.656Z,20.90
2022-10-24T11:12:40.048Z,12.18
2022-10-24T11:15:24.364Z,13.68
2022-10-24T11:18:21.290Z,15.35
2022-10-24T11:20:53.990Z,15.68
2022-10-24T11:23:47.258Z,11.65
2022-10-24T11:26:28.320Z,13.77
2022-10-24T11:29:18.191Z,15.93
2022-10-24T11:31:52.701Z,11.77
2022-10-24T11:34:26.848Z,15.77
2022-10-24T11:37:14.820Z,17.80
2022-10-24T11:39:54.790Z,10.90
2022-10-24T11:42:36.445Z,14.40
2022-10-24T11:45:12.008Z,10.50
2022-10-24T11:47:46.513Z,12.35
2022-10-24T11:50:24.716Z,14.52
2022-10-24T11:52:58.536Z,14.65
2022-10-24T11:55:37.403Z,15.98
2022-10-24T11:58:12.757Z,15.48
2022-10-24T12:00:54.566Z,14.18
2022-10-24T12:03:42.922Z,10.63
2022-10-24T12:06:52.708Z,17.70
2022-10-24T12:09:40.645Z,20.17
2022-10-24T12:12:26.430Z,14.13
2022-10-24T12:15:08.412Z,12.45
2022-10-24T12:17:59.557Z,12.88
2022-10-24T12:20:27.706Z,14.32
2022-10-24T12:22:55.180Z,16.35
2022-10-24T12:25:29.119Z,13.10
2022-10-24T12:28:01.313Z,12.05
2022-10-24T12:30:32.281Z,14.40
2022-10-24T12:33:23.469Z,15.90
2022-10-24T12:35:52.922Z,13.60
2022-10-24T12:38:28.705Z,15.25
2022-10-24T12:41:10.147Z,19.13
2022-10-24T12:43:42.852Z,14.52
2022-10-24T12:46:35.879Z,14.23
2022-10-24T12:49:02.549Z,11.35
2022-10-24T12:51:30.957Z,18.80
2022-10-24T12:54:05.116Z,17.77
2022-10-24T12:56:33.924Z,15.48
2022-10-24T12:59:20.467Z,14.98
2022-10-24T13:02:11.485Z,13.52
2022-10-24T13:05:12.432Z,16.13
2022-10-24T13:08:04.112Z,11.98
2022-10-24T13:11:04.749Z,16.60
2022-10-24T13:13:56.261Z,15.20
2022-10-24T13:16:35.716Z,14.35
2022-10-24T13:19:15.607Z,11.80
2022-10-24T13:21:52.937Z,11.90
2022-10-24T13:24:36.202Z,18.70
2022-10-24T13:27:11.775Z,15.15
2022-10-24T13:29:40.084Z,12.57
2022-10-24T13:32:06.801Z,15.02
2022-10-24T13:34:42.893Z,16.45
2022-10-24T13:37:09.561Z,15.70
2022-10-24T13:39:45.663Z,15.50
2022-10-24T13:42:43.486Z,17.23
2022-10-24T13:45:33.082Z,18.27
2022-10-24T13:48:07.931Z,17.23
2022-10-24T13:50:41.776Z,15.48
2022-10-24T13:53:31.080Z,18.85
2022-10-24T13:56:04.947Z,21.77
2022-10-24T13:58:42.135Z,13.35
2022-10-24T14:01:25.700Z,16.90
2022-10-24T14:03:54.487Z,11.80
2022-10-24T14:06:30.890Z,19.23
2022-10-24T14:09:07.131Z,16.70
2022-10-24T14:11:40.607Z,15.60
2022-10-24T14:14:25.495Z,12.55
2022-10-24T14:17:30.738Z,15.40
2022-10-24T14:20:22.703Z,14.73
2022-10-24T14:22:49.723Z,15.48
2022-10-24T14:25:24.411Z,20.05
2022-10-24T14:27:57.449Z,23.38
2022-10-24T14:30:30.531Z,22.08
2022-10-24T14:33:17.497Z,19.05
2022-10-24T14:35:44.272Z,17.70
2022-10-24T14:38:14.902Z,13.85
2022-10-24T14:40:47.080Z,14.75
2022-10-24T14:43:17.257Z,18.45
2022-10-24T14:46:09.061Z,20.52
2022-10-24T14:48:37.126Z,19.15
2022-10-24T14:51:10.291Z,16.98
2022-10-24T14:53:39.610Z,23.08
2022-10-24T14:56:20.488Z,21.23
2022-10-24T14:58:51.757Z,23.20
2022-10-24T15:01:20.142Z,17.42
2022-10-24T15:03:58.709Z,20.48
2022-10-24T15:06:40.488Z,16.23
2022-10-24T15:09:10.422Z,17.35
2022-10-24T15:11:46.022Z,18.65
2022-10-24T15:14:31.648Z,12.77
2022-10-24T15:17:03.194Z,13.27
2022-10-24T15:19:30.192Z,25.13
2022-10-24T15:21:57.013Z,16.25
2022-10-24T15:24:26.665Z,19.77
2022-10-24T15:27:10.198Z,20.45
2022-10-24T15:29:37.194Z,40.28
2022-10-24T15:32:06.161Z,34.60
2022-10-24T15:34:34.543Z,23.13
2022-10-24T15:37:03.627Z,22.05
2022-10-24T15:39:30.687Z,19.65
2022-10-24T15:41:57.546Z,24.20
2022-10-24T15:44:27.713Z,23.50
2022-10-24T15:46:55.583Z,26.48
2022-10-24T15:49:22.812Z,29.20
2022-10-24T15:51:50.856Z,23.05
2022-10-24T15:54:20.697Z,23.52
2022-10-24T15:56:47.888Z,16.85
2022-10-24T15:59:14.877Z,28.70
2022-10-24T16:01:47.497Z,19.55
2022-10-24T16:04:15.487Z,20.17
2022-10-24T16:06:42.893Z,24.90
2022-10-24T16:09:14.570Z,21.00
2022-10-24T16:11:41.584Z,22.20
2022-10-24T16:14:13.963Z,28.55
2022-10-24T16:16:41.004Z,26.77
2022-10-24T16:19:09.560Z,24.70
2022-10-24T16:21:37.314Z,24.88
2022-10-24T16:24:04.821Z,29.15
2022-10-24T16:26:31.623Z,24.10
2022-10-24T16:28:58.564Z,28.23
2022-10-24T16:31:25.400Z,28.17
2022-10-24T16:33:52.477Z,25.80
2022-10-24T16:36:22.241Z,29.88
2022-10-24T16:38:52.107Z,30.77
2022-10-24T16:41:21.972Z,28.55
2022-10-24T16:43:50.006Z,24.48
2022-10-24T16:46:19.375Z,28.13
2022-10-24T16:48:47.745Z,36.22
2022-10-24T16:51:27.592Z,32.78
2022-10-24T16:53:54.659Z,34.30
2022-10-24T16:56:21.358Z,37.17
2022-10-24T16:58:48.399Z,38.50
2022-10-24T17:01:16.346Z,29.67
2022-10-24T17:03:47.443Z,29.88
2022-10-24T17:06:14.783Z,27.20
2022-10-24T17:08:42.244Z,30.48
2022-10-24T17:11:32.185Z,39.20
2022-10-24T17:13:58.467Z,37.33
2022-10-24T17:16:25.359Z,26.42
2022-10-24T17:19:12.260Z,30.20
2022-10-24T17:21:42.263Z,36.67
2022-10-24T17:24:11.697Z,35.50
2022-10-24T17:26:39.831Z,30.95
2022-10-24T17:29:08.445Z,28.92
2022-10-24T17:31:35.820Z,27.65
2022-10-24T17:34:03.262Z,27.67
2022-10-24T17:36:34.813Z,29.73
2022-10-24T17:39:20.702Z,26.08
2022-10-24T17:41:47.757Z,37.22
2022-10-24T17:44:17.754Z,28.45
2022-10-24T17:46:45.387Z,31.10
2022-10-24T17:49:17.849Z,29.25
2022-10-24T17:51:48.648Z,28.05
2022-10-24T17:54:15.739Z,32.15
2022-10-24T17:56:42.938Z,26.70
2022-10-24T17:59:09.946Z,24.80
2022-10-24T18:01:36.919Z,25.17
2022-10-24T18:04:04.513Z,22.45
2022-10-24T18:06:31.502Z,26.33
2022-10-24T18:08:58.686Z,21.83
2022-10-24T18:11:25.452Z,30.92
2022-10-24T18:13:52.433Z,35.45
2022-10-24T18:16:20.143Z,29.48
2022-10-24T18:18:48.090Z,27.67
2022-10-24T18:21:24.334Z,31.95
2022-10-24T18:23:54.600Z,31.65
2022-10-24T18:26:24.428Z,20.58
2022-10-24T18:28:53.801Z,27.58
2022-10-24T18:31:30.377Z,32.03
2022-10-24T18:34:07.567Z,22.30
2022-10-24T18:36:36.944Z,27.27
2022-10-24T18:39:04.280Z,21.70
2022-10-24T18:41:34.730Z,28.88
2022-10-24T18:44:23.098Z,27.55
2022-10-24T18:46:51.633Z,26.73
2022-10-24T18:49:19.211Z,28.67
2022-10-24T18:51:53.095Z,30.60
2022-10-24T18:54:21.334Z,21.98
2022-10-24T18:56:48.783Z,30.77
2022-10-24T18:59:19.405Z,24.95
2022-10-24T19:02:19.369Z,27.65
2022-10-24T19:04:55.418Z,25.02
2022-10-24T19:07:22.391Z,29.80
2022-10-24T19:09:49.358Z,29.20
2022-10-24T19:12:16.303Z,31.98
2022-10-24T19:14:43.555Z,27.80
2022-10-24T19:17:14.180Z,25.35
2022-10-24T19:19:42.124Z,25.60
2022-10-24T19:22:09.333Z,32.13
2022-10-24T19:24:36.426Z,28.17
2022-10-24T19:27:03.415Z,30.58
2022-10-24T19:29:30.513Z,29.05
2022-10-24T19:31:58.545Z,27.08
2022-10-24T19:34:26.927Z,26.55
2022-10-24T19:36:53.689Z,23.33
2022-10-24T19:39:20.733Z,35.35
2022-10-24T19:41:47.500Z,26.98
2022-10-24T19:44:14.977Z,25.88
2022-10-24T19:46:41.675Z,28.23
2022-10-24T19:49:08.729Z,19.25
2022-10-24T19:51:35.696Z,23.38
2022-10-24T19:54:02.650Z,21.75
2022-10-24T19:56:31.386Z,21.13
2022-10-24T19:58:58.408Z,24.52
2022-10-24T20:01:28.142Z,24.23
2022-10-24T20:03:56.197Z,25.88
2022-10-24T20:06:26.216Z,20.45
2022-10-24T20:08:53.635Z,28.17
2022-10-24T20:11:20.808Z,25.55
2022-10-24T20:13:48.886Z,19.48
2022-10-24T20:16:16.327Z,19.88
2022-10-24T20:18:43.950Z,17.27
2022-10-24T20:21:13.304Z,18.40
2022-10-24T20:23:41.635Z,19.13
2022-10-24T20:26:14.808Z,13.45
2022-10-24T20:28:45.028Z,18.40
2022-10-24T20:31:26.290Z,19.08
2022-10-24T20:33:53.325Z,17.67
2022-10-24T20:36:21.291Z,18.42
2022-10-24T20:38:48.369Z,20.73
2022-10-24T20:41:15.258Z,16.85
2022-10-24T20:43:42.262Z,19.83
2022-10-24T20:46:09.096Z,23.75
2022-10-24T20:48:36.289Z,15.45
2022-10-24T20:51:08.361Z,19.70
2022-10-24T20:53:35.674Z,19.00
2022-10-24T20:56:07.895Z,16.80
2022-10-24T20:58:39.625Z,20.25
2022-10-24T21:01:17.923Z,19.35
2022-10-24T21:03:44.993Z,22.13
2022-10-24T21:06:32.626Z,17.10
2022-10-24T21:11:32.597Z,19.08
2022-10-24T21:14:04.645Z,16.25
2022-10-24T21:16:32.190Z,21.30
2022-10-24T21:18:59.872Z,21.58
2022-10-24T21:21:27.250Z,15.32
2022-10-24T21:24:02.237Z,14.50
2022-10-24T21:26:38.483Z,13.95
2022-10-24T21:29:31.741Z,12.38
2022-10-24T21:31:54.048Z,18.17
2022-10-24T21:34:21.056Z,15.60
2022-10-24T21:36:48.414Z,14.65
2022-10-24T21:39:16.519Z,18.38
2022-10-24T21:41:44.124Z,14.02
2022-10-24T21:44:11.920Z,13.65
2022-10-24T21:46:39.137Z,10.93
2022-10-24T21:49:06.243Z,15.63
2022-10-24T21:51:35.640Z,9.57
2022-10-24T21:54:05.539Z,9.50
2022-10-24T21:56:34.380Z,12.73
2022-10-24T22:01:37.372Z,16.05
2022-10-24T22:04:05.963Z,13.23
2022-10-24T22:06:34.889Z,8.82
2022-10-24T22:09:02.803Z,13.77
2022-10-24T22:11:31.880Z,12.68
2022-10-24T22:13:59.672Z,10.30
2022-10-24T22:16:29.216Z,13.85
2022-10-24T22:18:58.928Z,9.85
2022-10-24T22:21:28.707Z,13.85
2022-10-24T22:23:57.521Z,10.73
2022-10-24T22:26:25.337Z,9.90
2022-10-24T22:28:55.658Z,12.90
2022-10-24T22:31:24.555Z,13.00
2022-10-24T22:33:52.409Z,12.35
2022-10-24T22:36:40.212Z,8.95
2022-10-24T22:39:14.876Z,12.30
2022-10-24T22:41:42.585Z,12.75
2022-10-24T22:44:14.499Z,16.08
2022-10-24T22:47:23.896Z,13.35
2022-10-24T22:50:02.213Z,15.70
2022-10-24T22:52:29.455Z,11.07
2022-10-24T22:54:56.883Z,11.10
2022-10-24T22:57:24.260Z,13.25
2022-10-24T22:59:51.429Z,16.95
2022-10-24T23:02:36.630Z,15.70
2022-10-24T23:05:26.748Z,12.27
2022-10-24T23:08:03.379Z,15.77
2022-10-24T23:10:30.622Z,12.57
2022-10-24T23:12:57.829Z,17.35
2022-10-24T23:15:25.180Z,9.90
2022-10-24T23:17:52.401Z,10.00
2022-10-24T23:20:44.240Z,9.95
2022-10-24T23:23:28.801Z,13.45
2022-10-24T23:26:12.552Z,12.85
2022-10-24T23:29:02.631Z,11.88
2022-10-24T23:31:29.813Z,12.27
2022-10-24T23:33:57.036Z,19.40
2022-10-24T23:36:26.628Z,15.77
2022-10-24T23:38:56.662Z,13.07
2022-10-24T23:41:23.835Z,12.00
2022-10-24T23:43:50.877Z,21.45
2022-10-24T23:46:34.671Z,14.37
2022-10-24T23:49:27.566Z,13.35
2022-10-24T23:52:03.245Z,10.93
2022-10-24T23:54:32.777Z,17.33
2022-10-24T23:57:00.494Z,12.40
2022-10-24T23:59:27.791Z,15.23
